createdAt,value
2022-11-13T00:02:21.826Z,82.78
2022-11-13T00:05:08.778Z,82.75
2022-11-13T00:07:55.419Z,82.04
2022-11-13T00:10:42.076Z,83.03
2022-11-13T00:13:30.715Z,82.29
2022-11-13T00:16:19.044Z,82.57
2022-11-13T00:19:05.927Z,82.84
2022-11-13T00:21:54.803Z,82.56
2022-11-13T00:24:41.732Z,82.36
2022-11-13T00:27:28.116Z,82.44
2022-11-13T00:30:19.330Z,82.24
2022-11-13T00:33:06.037Z,82.48
2022-11-13T00:35:52.626Z,82.32
2022-11-13T00:38:39.025Z,82.44
2022-11-13T00:41:25.666Z,83.09
2022-11-13T00:44:11.936Z,82.35
2022-11-13T00:46:59.710Z,82.90
2022-11-13T00:49:45.946Z,82.71
2022-11-13T00:52:33.386Z,83.12
2022-11-13T00:55:20.183Z,83.01
2022-11-13T00:58:07.089Z,82.74
2022-11-13T01:00:53.361Z,82.90
2022-11-13T01:03:41.637Z,83.13
2022-11-13T01:06:29.475Z,82.76
2022-11-13T01:09:15.787Z,82.62
2022-11-13T01:12:02.650Z,82.28
2022-11-13T01:14:49.003Z,82.61
2022-11-13T01:17:35.200Z,82.63
2022-11-13T01:20:23.033Z,82.78
2022-11-13T01:23:09.872Z,83.04
2022-11-13T01:25:56.081Z,82.75
2022-11-13T01:28:43.384Z,82.67
2022-11-13T01:31:31.674Z,82.88
2022-11-13T01:34:18.059Z,83.37
2022-11-13T01:37:06.184Z,83.29
2022-11-13T01:39:52.555Z,83.06
2022-11-13T01:42:38.939Z,83.20
2022-11-13T01:46:03.020Z,83.14
2022-11-13T01:48:53.743Z,82.51
2022-11-13T01:51:42.248Z,82.64
2022-11-13T01:54:32.839Z,83.49
2022-11-13T01:57:20.752Z,82.60
2022-11-13T02:00:11.567Z,82.72
2022-11-13T02:02:57.996Z,82.91
2022-11-13T02:05:44.687Z,83.39
2022-11-13T02:08:31.480Z,82.67
2022-11-13T02:11:20.908Z,82.70
2022-11-13T02:14:10.398Z,83.50
2022-11-13T02:17:01.184Z,82.62
2022-11-13T02:19:51.796Z,83.41
2022-11-13T02:22:46.007Z,82.93
2022-11-13T02:25:35.142Z,82.80
2022-11-13T02:28:21.664Z,83.31
2022-11-13T02:31:10.133Z,83.34
2022-11-13T02:33:57.190Z,82.91
2022-11-13T02:36:43.913Z,83.60
2022-11-13T02:39:31.125Z,82.96
2022-11-13T02:42:18.824Z,83.18
2022-11-13T02:45:06.341Z,83.36
2022-11-13T02:47:52.700Z,82.86
2022-11-13T02:50:39.918Z,83.28
2022-11-13T02:53:26.074Z,83.43
2022-11-13T02:56:12.444Z,82.88
2022-11-13T02:59:00.307Z,83.43
2022-11-13T03:01:47.443Z,82.75
2022-11-13T03:04:57.273Z,82.99
2022-11-13T03:07:40.468Z,83.54
2022-11-13T03:10:27.175Z,82.95
2022-11-13T03:13:14.541Z,82.80
2022-11-13T03:16:08.656Z,83.01
2022-11-13T03:18:56.360Z,83.46
2022-11-13T03:21:47.100Z,82.88
2022-11-13T03:24:33.304Z,83.01
2022-11-13T03:30:31.321Z,83.47
2022-11-13T03:33:19.233Z,83.18
2022-11-13T03:36:06.622Z,83.15
2022-11-13T03:38:55.068Z,83.64
2022-11-13T03:41:41.769Z,82.98
2022-11-13T03:44:28.281Z,83.39
2022-11-13T03:47:14.605Z,83.26
2022-11-13T03:50:02.516Z,83.20
2022-11-13T03:52:48.784Z,83.50
2022-11-13T03:55:35.357Z,83.12
2022-11-13T03:58:21.767Z,83.27
2022-11-13T04:01:08.578Z,83.26
2022-11-13T04:03:55.144Z,83.52
2022-11-13T04:06:43.037Z,83.23
2022-11-13T04:09:29.805Z,83.49
2022-11-13T04:12:16.047Z,83.47
2022-11-13T04:15:03.341Z,83.53
2022-11-13T04:17:50.250Z,83.80
2022-11-13T04:20:36.747Z,83.77
2022-11-13T04:23:24.800Z,83.53
2022-11-13T04:26:11.156Z,83.19
2022-11-13T04:28:57.590Z,83.48
2022-11-13T04:31:44.392Z,83.42
2022-11-13T04:34:31.047Z,83.23
2022-11-13T04:37:17.301Z,83.48
2022-11-13T04:40:06.541Z,83.44
2022-11-13T04:42:51.959Z,83.57
2022-11-13T04:45:39.079Z,83.63
2022-11-13T04:48:25.798Z,83.45
2022-11-13T04:51:13.092Z,83.18
2022-11-13T04:53:59.760Z,83.69
2022-11-13T04:56:47.658Z,83.28
2022-11-13T04:59:34.589Z,83.70
2022-11-13T05:02:21.154Z,83.35
2022-11-13T05:05:08.219Z,83.56
2022-11-13T05:07:56.198Z,83.53
2022-11-13T05:10:42.839Z,83.78
2022-11-13T05:13:33.397Z,83.32
2022-11-13T05:16:19.717Z,83.66
2022-11-13T05:19:07.369Z,83.56
2022-11-13T05:21:53.825Z,83.36
2022-11-13T05:24:40.126Z,83.49
2022-11-13T05:27:26.431Z,83.44
2022-11-13T05:30:14.389Z,83.53
2022-11-13T05:33:01.292Z,83.55
2022-11-13T05:35:47.950Z,83.48
2022-11-13T05:38:35.323Z,83.41
2022-11-13T05:41:23.329Z,83.52
2022-11-13T05:44:10.386Z,83.50
2022-11-13T05:46:58.581Z,83.53
2022-11-13T05:49:44.773Z,83.69
2022-11-13T05:52:31.841Z,83.92
2022-11-13T05:55:22.173Z,83.38
2022-11-13T05:58:11.769Z,83.68
2022-11-13T06:01:10.351Z,83.60
2022-11-13T06:03:59.679Z,83.56
2022-11-13T06:06:46.504Z,83.67
2022-11-13T06:09:33.219Z,83.88
2022-11-13T06:12:19.986Z,83.95
2022-11-13T06:15:07.730Z,83.57
2022-11-13T06:17:54.314Z,83.59
2022-11-13T06:20:42.510Z,83.73
2022-11-13T06:23:28.929Z,83.66
2022-11-13T06:26:18.355Z,83.54
2022-11-13T06:29:06.948Z,83.63
2022-11-13T06:31:53.458Z,83.75
2022-11-13T06:34:40.032Z,83.33
2022-11-13T06:37:31.487Z,83.71
2022-11-13T06:40:21.250Z,83.57
2022-11-13T06:43:07.444Z,83.52
2022-11-13T06:45:54.335Z,83.80
2022-11-13T06:48:41.291Z,83.80
2022-11-13T06:51:30.116Z,83.71
2022-11-13T06:54:17.652Z,83.95
2022-11-13T06:57:04.392Z,83.75
2022-11-13T06:59:51.029Z,83.75
2022-11-13T07:02:37.287Z,84.01
2022-11-13T07:05:23.972Z,83.79
2022-11-13T07:08:10.417Z,83.98
2022-11-13T07:10:58.814Z,83.94
2022-11-13T07:13:45.683Z,83.76
2022-11-13T07:16:56.122Z,83.90
2022-11-13T07:19:39.362Z,84.01
2022-11-13T07:22:25.637Z,83.62
2022-11-13T07:25:12.673Z,83.75
2022-11-13T07:28:00.664Z,83.82
2022-11-13T07:30:47.127Z,83.79
2022-11-13T07:33:34.203Z,83.48
2022-11-13T07:36:20.576Z,84.01
2022-11-13T07:39:06.798Z,84.25
2022-11-13T07:41:54.030Z,84.13
2022-11-13T07:44:54.629Z,84.16
2022-11-13T07:47:42.000Z,83.61
2022-11-13T07:50:29.707Z,83.59
2022-11-13T07:53:16.460Z,83.91
2022-11-13T07:56:03.319Z,84.14
2022-11-13T07:58:50.090Z,83.74
2022-11-13T08:01:38.481Z,84.38
2022-11-13T08:04:25.118Z,84.00
2022-11-13T08:07:12.721Z,83.98
2022-11-13T08:09:59.354Z,84.06
2022-11-13T08:12:46.724Z,84.13
2022-11-13T08:15:34.028Z,83.67
2022-11-13T08:18:22.309Z,83.88
2022-11-13T08:21:14.514Z,84.39
2022-11-13T08:24:01.626Z,83.70
2022-11-13T08:26:49.058Z,84.05
2022-11-13T08:29:37.388Z,83.77
2022-11-13T08:32:24.166Z,84.01
2022-11-13T08:35:17.321Z,84.03
2022-11-13T08:38:07.237Z,83.57
2022-11-13T08:40:53.764Z,84.36
2022-11-13T08:43:40.303Z,84.26
2022-11-13T08:46:26.668Z,83.53
2022-11-13T08:49:13.236Z,83.91
2022-11-13T08:52:01.187Z,83.72
2022-11-13T08:54:48.517Z,84.59
2022-11-13T08:57:35.288Z,84.38
2022-11-13T09:00:22.150Z,83.81
2022-11-13T09:03:12.119Z,83.84
2022-11-13T09:05:58.394Z,83.75
2022-11-13T09:08:46.804Z,83.98
2022-11-13T09:11:33.220Z,83.87
2022-11-13T09:14:20.429Z,84.08
2022-11-13T09:17:07.076Z,84.07
2022-11-13T09:19:53.821Z,84.17
2022-11-13T09:22:40.068Z,84.58
2022-11-13T09:25:34.166Z,84.55
2022-11-13T09:28:23.968Z,84.01
2022-11-13T09:31:11.211Z,84.59
2022-11-13T09:33:57.629Z,84.51
2022-11-13T09:36:44.488Z,84.00
2022-11-13T09:39:30.722Z,84.45
2022-11-13T09:42:22.145Z,84.62
2022-11-13T09:45:14.825Z,84.61
2022-11-13T09:48:13.708Z,84.34
2022-11-13T09:51:05.089Z,84.36
2022-11-13T09:53:51.828Z,84.04
2022-11-13T09:56:42.441Z,84.22
2022-11-13T09:59:35.801Z,84.08
2022-11-13T10:02:24.180Z,84.36
2022-11-13T10:05:16.291Z,84.39
2022-11-13T10:08:12.219Z,84.66
2022-11-13T10:11:10.339Z,84.77
2022-11-13T10:14:00.967Z,84.50
2022-11-13T10:16:53.426Z,84.06
2022-11-13T10:19:47.480Z,84.54
2022-11-13T10:22:40.733Z,84.23
2022-11-13T10:25:27.894Z,84.03
2022-11-13T10:28:48.889Z,84.11
2022-11-13T10:31:25.394Z,84.35
2022-11-13T10:34:14.921Z,84.53
2022-11-13T10:37:20.357Z,83.89
2022-11-13T10:40:07.792Z,84.42
2022-11-13T10:42:53.984Z,84.09
2022-11-13T10:45:42.327Z,84.29
2022-11-13T10:48:30.775Z,84.63
2022-11-13T10:51:25.333Z,84.24
2022-11-13T10:54:24.178Z,84.10
2022-11-13T10:57:24.163Z,84.79
2022-11-13T11:00:22.168Z,84.32
2022-11-13T11:03:10.075Z,84.58
2022-11-13T11:05:58.492Z,84.65
2022-11-13T11:08:46.599Z,84.48
2022-11-13T11:11:50.419Z,84.61
2022-11-13T11:14:42.559Z,84.63
2022-11-13T11:17:34.021Z,84.73
2022-11-13T11:20:30.352Z,84.55
2022-11-13T11:23:27.767Z,84.53
2022-11-13T11:26:19.088Z,84.54
2022-11-13T11:29:16.000Z,84.54
2022-11-13T11:32:10.299Z,84.49
2022-11-13T11:35:06.262Z,84.48
2022-11-13T11:37:56.795Z,84.40
2022-11-13T11:40:46.584Z,84.17
2022-11-13T11:43:44.375Z,84.42
2022-11-13T11:46:31.702Z,84.61
2022-11-13T11:49:18.868Z,84.40
2022-11-13T11:52:18.923Z,84.32
2022-11-13T11:55:31.220Z,84.19
2022-11-13T11:58:32.901Z,84.45
2022-11-13T12:01:30.055Z,84.14
2022-11-13T12:04:33.406Z,84.07
2022-11-13T12:07:34.342Z,84.01
2022-11-13T12:10:28.245Z,84.35
2022-11-13T12:13:26.477Z,83.88
2022-11-13T12:16:24.882Z,83.99
2022-11-13T12:19:23.319Z,83.89
2022-11-13T12:22:17.310Z,84.25
2022-11-13T12:25:15.548Z,83.99
2022-11-13T12:28:14.983Z,84.10
2022-11-13T12:31:12.749Z,84.04
2022-11-13T12:34:10.452Z,84.00
2022-11-13T12:36:59.689Z,84.11
2022-11-13T12:39:55.183Z,83.78
2022-11-13T12:42:48.761Z,84.22
2022-11-13T12:45:47.267Z,84.02
2022-11-13T12:48:36.137Z,83.99
2022-11-13T12:51:22.923Z,83.75
2022-11-13T12:54:11.797Z,84.02
2022-11-13T12:57:27.288Z,83.83
2022-11-13T13:00:26.575Z,83.49
2022-11-13T13:03:35.009Z,83.43
2022-11-13T13:06:50.805Z,83.99
2022-11-13T13:09:54.093Z,83.96
2022-11-13T13:12:49.459Z,83.62
2022-11-13T13:15:38.709Z,83.37
2022-11-13T13:18:31.581Z,83.70
2022-11-13T13:21:21.051Z,83.62
2022-11-13T13:24:09.864Z,83.83
2022-11-13T13:26:57.964Z,83.39
2022-11-13T13:29:44.436Z,83.86
2022-11-13T13:32:43.841Z,83.32
2022-11-13T13:35:35.539Z,83.39
2022-11-13T13:38:30.232Z,83.53
2022-11-13T13:41:31.294Z,83.36
2022-11-13T13:44:31.744Z,83.54
2022-11-13T13:47:27.942Z,83.45
2022-11-13T13:50:18.185Z,83.46
2022-11-13T13:53:04.802Z,83.50
2022-11-13T13:55:53.830Z,83.46
2022-11-13T13:58:41.269Z,83.24
2022-11-13T14:01:31.357Z,83.38
2022-11-13T14:04:20.734Z,83.62
2022-11-13T14:07:19.395Z,83.10
2022-11-13T14:10:16.661Z,83.42
2022-11-13T14:13:03.837Z,83.19
2022-11-13T14:15:50.376Z,83.42
2022-11-13T14:18:38.196Z,83.05
2022-11-13T14:21:25.039Z,83.22
2022-11-13T14:24:18.632Z,82.98
2022-11-13T14:27:08.376Z,83.41
2022-11-13T14:29:57.910Z,83.00
2022-11-13T14:32:47.305Z,82.98
2022-11-13T14:35:35.795Z,82.94
2022-11-13T14:38:25.835Z,82.96
2022-11-13T14:41:23.698Z,82.95
2022-11-13T14:44:12.356Z,83.00
2022-11-13T14:47:03.655Z,83.14
2022-11-13T14:49:50.217Z,82.99
2022-11-13T14:52:37.857Z,82.86
2022-11-13T14:55:26.880Z,82.78
2022-11-13T14:58:14.763Z,82.85
2022-11-13T15:01:14.319Z,83.08
2022-11-13T15:04:00.999Z,82.93
2022-11-13T15:06:48.647Z,82.96
2022-11-13T15:09:36.486Z,83.03
2022-11-13T15:12:22.959Z,82.93
2022-11-13T15:15:15.295Z,82.68
2022-11-13T15:18:03.478Z,82.95
2022-11-13T15:20:50.166Z,82.83
2022-11-13T15:23:36.357Z,82.63
2022-11-13T15:26:24.569Z,82.79
2022-11-13T15:29:11.270Z,82.91
2022-11-13T15:31:58.407Z,82.75
2022-11-13T15:34:45.102Z,83.25
2022-11-13T15:37:31.480Z,82.61
2022-11-13T15:40:18.727Z,82.80
2022-11-13T15:43:06.776Z,83.17
2022-11-13T15:45:53.752Z,83.07
2022-11-13T15:48:39.950Z,82.49
2022-11-13T15:51:31.820Z,82.74
2022-11-13T15:54:26.651Z,82.49
2022-11-13T15:57:19.706Z,82.63
2022-11-13T16:00:15.259Z,82.57
2022-11-13T16:03:04.359Z,82.63
2022-11-13T16:05:53.821Z,82.64
2022-11-13T16:08:39.972Z,82.56
2022-11-13T16:11:26.305Z,83.24
2022-11-13T16:14:12.562Z,82.86
2022-11-13T16:17:00.195Z,82.71
2022-11-13T16:19:48.587Z,82.72
2022-11-13T16:22:35.088Z,83.06
2022-11-13T16:25:22.966Z,82.34
2022-11-13T16:28:16.059Z,82.92
2022-11-13T16:31:02.219Z,82.85
2022-11-13T16:33:50.343Z,82.97
2022-11-13T16:36:36.935Z,82.54
2022-11-13T16:39:23.281Z,82.73
2022-11-13T16:42:10.165Z,82.66
2022-11-13T16:44:57.584Z,83.14
2022-11-13T16:47:43.997Z,83.17
2022-11-13T16:50:33.931Z,82.92
2022-11-13T16:53:20.824Z,82.59
2022-11-13T16:56:13.476Z,82.56
2022-11-13T16:59:00.459Z,82.32
2022-11-13T17:01:47.296Z,82.93
2022-11-13T17:04:33.837Z,83.22
2022-11-13T17:07:23.052Z,82.83
2022-11-13T17:13:19.331Z,82.48
2022-11-13T17:16:05.924Z,82.86
2022-11-13T17:18:53.329Z,82.75
2022-11-13T17:21:44.153Z,82.53
2022-11-13T17:24:32.401Z,83.22
2022-11-13T17:27:18.804Z,83.04
2022-11-13T17:30:06.840Z,82.16
2022-11-13T17:32:53.775Z,82.83
2022-11-13T17:35:40.256Z,82.85
2022-11-13T17:38:27.072Z,82.60
2022-11-13T17:41:16.011Z,82.37
2022-11-13T17:44:03.186Z,82.98
2022-11-13T17:46:49.680Z,82.91
2022-11-13T17:49:36.058Z,82.64
2022-11-13T17:52:22.262Z,82.84
2022-11-13T17:55:11.803Z,82.87
2022-11-13T17:58:01.508Z,82.78
2022-11-13T18:00:48.618Z,82.61
2022-11-13T18:03:35.709Z,82.99
2022-11-13T18:06:25.864Z,82.73
2022-11-13T18:09:12.371Z,82.90
2022-11-13T18:11:59.154Z,82.79
2022-11-13T18:14:52.506Z,82.65
2022-11-13T18:17:39.462Z,82.56
2022-11-13T18:20:25.912Z,82.52
2022-11-13T18:23:12.058Z,82.69
2022-11-13T18:25:58.521Z,82.55
2022-11-13T18:28:45.152Z,82.83
2022-11-13T18:31:33.402Z,82.62
2022-11-13T18:34:19.724Z,83.03
2022-11-13T18:37:06.031Z,82.73
2022-11-13T18:39:52.373Z,82.77
2022-11-13T18:42:38.815Z,82.54
2022-11-13T18:45:25.326Z,82.83
2022-11-13T18:48:13.826Z,83.03
2022-11-13T18:51:02.595Z,82.48
2022-11-13T18:53:50.149Z,82.89
2022-11-13T18:56:36.643Z,82.83
2022-11-13T18:59:23.548Z,82.66
2022-11-13T19:02:11.068Z,82.69
2022-11-13T19:04:59.351Z,82.52
2022-11-13T19:07:45.881Z,82.79
2022-11-13T19:10:35.129Z,82.76
2022-11-13T19:13:21.453Z,82.62
2022-11-13T19:16:10.013Z,82.80
2022-11-13T19:18:58.433Z,82.93
2022-11-13T19:21:47.359Z,82.81
2022-11-13T19:24:34.439Z,82.62
2022-11-13T19:27:21.553Z,82.78
2022-11-13T19:30:09.080Z,82.78
2022-11-13T19:32:55.779Z,82.77
2022-11-13T19:35:42.368Z,82.62
2022-11-13T19:38:31.029Z,82.24
2022-11-13T19:41:18.824Z,82.57
2022-11-13T19:44:06.543Z,82.83
2022-11-13T19:46:53.698Z,82.92
2022-11-13T19:49:40.580Z,82.57
2022-11-13T19:52:27.213Z,82.56
2022-11-13T19:55:15.085Z,82.71
2022-11-13T19:58:01.938Z,82.77
2022-11-13T20:00:48.547Z,82.71
2022-11-13T20:03:35.358Z,82.93
2022-11-13T20:06:21.607Z,82.90
2022-11-13T20:09:08.130Z,82.56
2022-11-13T20:11:55.942Z,82.78
2022-11-13T20:14:42.317Z,82.78
2022-11-13T20:17:28.671Z,82.97
2022-11-13T20:20:15.210Z,82.69
2022-11-13T20:23:01.724Z,82.89
2022-11-13T20:25:53.573Z,82.69
2022-11-13T20:28:41.958Z,82.93
2022-11-13T20:31:29.953Z,82.84
2022-11-13T20:34:16.552Z,82.68
2022-11-13T20:37:03.208Z,82.88
2022-11-13T20:39:49.733Z,83.00
2022-11-13T20:42:36.083Z,82.85
2022-11-13T20:45:24.489Z,82.65
2022-11-13T20:48:10.956Z,82.82
2022-11-13T20:50:57.271Z,82.63
2022-11-13T20:53:44.354Z,82.58
2022-11-13T20:56:31.129Z,82.69
2022-11-13T20:59:17.504Z,82.85
2022-11-13T21:02:05.799Z,82.96
2022-11-13T21:04:52.532Z,82.70
2022-11-13T21:07:39.275Z,82.91
2022-11-13T21:10:26.205Z,82.61
2022-11-13T21:13:13.213Z,82.84
2022-11-13T21:15:59.663Z,82.62
2022-11-13T21:18:48.197Z,82.71
2022-11-13T21:21:34.515Z,82.96
2022-11-13T21:24:20.885Z,83.09
2022-11-13T21:27:07.181Z,82.74
2022-11-13T21:29:53.843Z,82.80
2022-11-13T21:32:40.792Z,83.00
2022-11-13T21:35:29.946Z,83.12
2022-11-13T21:38:16.689Z,83.03
2022-11-13T21:41:24.597Z,83.47
2022-11-13T21:44:13.830Z,83.21
2022-11-13T21:47:00.440Z,82.89
2022-11-13T21:49:46.980Z,82.87
2022-11-13T21:52:35.233Z,83.10
2022-11-13T21:55:21.983Z,82.73
2022-11-13T21:58:08.149Z,82.78
2022-11-13T22:00:54.532Z,82.70
2022-11-13T22:03:41.935Z,82.87
2022-11-13T22:06:30.408Z,82.58
2022-11-13T22:09:19.820Z,83.09
2022-11-13T22:12:06.507Z,82.72
2022-11-13T22:14:53.433Z,82.69
2022-11-13T22:17:41.202Z,83.18
2022-11-13T22:20:28.439Z,82.88
2022-11-13T22:23:15.533Z,83.19
2022-11-13T22:26:05.577Z,83.26
2022-11-13T22:28:52.851Z,83.21
2022-11-13T22:31:39.791Z,83.37
2022-11-13T22:34:26.639Z,83.11
2022-11-13T22:37:13.407Z,83.41
2022-11-13T22:39:59.721Z,82.94
2022-11-13T22:42:47.498Z,83.03
2022-11-13T22:45:34.593Z,82.86
2022-11-13T22:48:21.158Z,83.11
2022-11-13T22:51:10.217Z,83.12
2022-11-13T22:53:58.687Z,82.92
2022-11-13T22:56:45.140Z,83.49
2022-11-13T22:59:32.744Z,83.44
2022-11-13T23:06:37.951Z,83.35
2022-11-13T23:09:27.137Z,83.05
2022-11-13T23:12:13.516Z,82.97
2022-11-13T23:14:59.836Z,83.12
2022-11-13T23:17:46.316Z,83.34
2022-11-13T23:20:32.979Z,82.95
2022-11-13T23:23:20.980Z,83.43
2022-11-13T23:26:09.513Z,83.37
2022-11-13T23:28:56.080Z,83.09
2022-11-13T23:31:42.851Z,83.11
2022-11-13T23:34:53.266Z,83.48
2022-11-13T23:37:35.753Z,83.16
2022-11-13T23:40:23.635Z,83.79
2022-11-13T23:43:10.736Z,83.21
2022-11-13T23:45:57.227Z,83.42
2022-11-13T23:48:44.249Z,83.36
2022-11-13T23:51:30.609Z,83.42
2022-11-13T23:54:16.908Z,83.65
2022-11-13T23:57:04.561Z,83.28
2022-11-13T23:59:51.013Z,83.20
